Humidity-temperature Sensor

Selected Measurement Type: Relative Humidity

 
Relative Humidity [%]     6 entries per hour
Showing data from 10/2/2022 (16:00:00 Z) to 10/1/2022 (00:01:00 Z)
Previous Next [ Day | 3-Days | 7-Days ]
First Last
Prev [ Day | 3-Days | 7-Days ] Next
First Last

Start Time:     :
End Time:     :     
Time (in GMT) :00 :50 :40 :30 :20 :10
Previous Next [ Day | 3-Days | 7-Days ]
First Last
Prev [ Day | 3-Days | 7-Days ] Next
First Last


123 => good data
MM => data is determined as missing
-- => data not received/configured
Back to Top Back to Top
10/2/2022 16:00 to 15:10 94.03 94.31 93.96 92.77 92.57 92.16
10/2/2022 15:00 to 14:10 91.54 91.83 91.27 90.82 90.63 90.37
10/2/2022 14:00 to 13:10 90.96 91.33 91.11 90.61 89.65 88.05
10/2/2022 13:00 to 12:10 87.12 86.85 87.47 88.27 88.74 87.98
10/2/2022 12:00 to 11:10 87.96 88.60 88.56 88.31 88.60 89.09
10/2/2022 11:00 to 10:10 90.04 90.57 90.86 91.17 91.03 91.03
10/2/2022 10:00 to 9:10 90.96 90.57 90.76 91.35 91.91 92.14
10/2/2022 09:00 to 8:10 91.87 91.68 91.54 91.07 90.90 90.41
10/2/2022 08:00 to 7:10 90.53 90.72 91.11 91.33 91.87 92.40
10/2/2022 07:00 to 6:10 92.69 92.94 93.16 93.47 93.02 92.79
10/2/2022 06:00 to 5:10 93.98 95.16 96.27 96.84 96.86 96.41
10/2/2022 05:00 to 4:10 95.05 93.55 91.89 90.00 88.89 89.09
10/2/2022 04:00 to 3:10 89.16 89.69 89.69 89.96 90.08 89.87
10/2/2022 03:00 to 2:10 89.69 89.38 89.67 89.83 89.55 88.89
10/2/2022 02:00 to 1:10 88.74 88.89 89.18 88.95 88.83 88.54
10/2/2022 01:00 to 0:10 87.94 87.51 87.31 87.86 88.72 89.26
10/2/2022 00:00 to 23:10 90.80 91.54 91.70 91.05 90.51 91.48
10/1/2022 23:00 to 22:10 92.09 91.99 93.22 93.57 93.82 94.11
10/1/2022 22:00 to 21:10 94.27 93.31 91.74 90.39 89.59 89.57
10/1/2022 21:00 to 20:10 89.65 89.53 88.42 88.70 88.95 89.34
10/1/2022 20:00 to 19:10 89.55 89.26 88.31 89.03 89.30 89.55
10/1/2022 19:00 to 18:10 89.67 89.46 89.48 89.44 89.81 90.43
10/1/2022 18:00 to 17:10 90.86 91.07 90.88 91.19 91.54 92.16
10/1/2022 17:00 to 16:10 92.40 92.28 92.07 92.38 91.62 91.44
10/1/2022 16:00 to 15:10 91.58 91.95 92.22 92.75 94.09 94.33
10/1/2022 15:00 to 14:10 94.00 93.90 93.98 93.14 92.48 92.18
10/1/2022 14:00 to 13:10 92.53 93.53 94.44 93.37 93.00 93.04
10/1/2022 13:00 to 12:10 93.08 92.42 92.40 93.00 93.55 93.55
10/1/2022 12:00 to 11:10 93.64 93.78 93.31 92.90 92.73 92.81
10/1/2022 11:00 to 10:10 92.81 92.63 92.73 93.20 93.76 94.33
10/1/2022 10:00 to 9:10 94.35 94.54 94.35 94.48 94.99 95.46
10/1/2022 09:00 to 8:10 95.67 96.04 96.27 95.92 95.44 95.77
10/1/2022 08:00 to 7:10 96.92 97.42 97.33 95.96 95.55 95.79
10/1/2022 07:00 to 6:10 96.31 96.86 96.88 96.92 95.53 94.93
10/1/2022 06:00 to 5:10 95.28 95.81 96.18 96.37 96.98 97.03
10/1/2022 05:00 to 4:10 96.53 95.79 96.16 96.86 97.48 97.97
10/1/2022 04:00 to 3:10 98.07 98.96 99.18 98.92 98.53 98.14
10/1/2022 03:00 to 2:10 97.97 97.66 97.27 97.40 97.89 97.85
10/1/2022 02:00 to 1:10 97.46 96.74 97.23 96.76 96.04 96.00
10/1/2022 01:00 to 0:10 96.41 96.98 97.25 97.60 98.42 98.46